Time;durP1;ratioP1;P1;durP2;ratioP2;P2;SDS_P1;SDS_P2;PMS_P1;PMS_P2;Temp;Humidity;BMP_temperature;BMP_pressure;BME280_temperature;BME280_humidity;BME280_pressure;Samples;Min_cycle;Max_cycle;Signal;HPM_P1;HPM_P2
2022/04/21 00:05:05;;;;;;;6.82;4.45;;;13.80;63.70;;;;;;10908177;32;20066;-72
2022/04/21 00:11:07;;;;;;;6.10;3.55;;;13.80;63.60;;;;;;10905952;32;20023;-72
2022/04/21 00:17:09;;;;;;;4.68;2.80;;;13.60;63.70;;;;;;10907863;32;20038;-72
2022/04/21 00:23:26;;;;;;;8.50;3.47;;;13.50;63.80;;;;;;10907699;32;20423;-72
2022/04/21 00:29:29;;;;;;;6.32;4.18;;;13.50;64.40;;;;;;10903300;32;20057;-72
2022/04/21 00:35:31;;;;;;;6.62;4.15;;;13.50;64.40;;;;;;10907382;32;20027;-72
2022/04/21 00:41:33;;;;;;;8.38;5.50;;;13.50;64.20;;;;;;10908163;32;20066;-72
2022/04/21 00:47:40;;;;;;;4.57;3.20;;;13.30;64.50;;;;;;10906732;32;20020;-72
2022/04/21 00:53:43;;;;;;;6.60;4.90;;;13.30;64.50;;;;;;10904769;32;20024;-72
2022/04/21 00:59:46;;;;;;;7.43;2.83;;;13.20;64.60;;;;;;10892940;32;20024;-72
2022/04/21 01:05:49;;;;;;;6.65;4.12;;;13.20;64.60;;;;;;10903554;32;20050;-72
2022/04/21 01:11:52;;;;;;;6.07;3.22;;;13.10;64.80;;;;;;10901861;32;20061;-72
2022/04/21 01:17:55;;;;;;;4.28;3.12;;;13.10;65.10;;;;;;10940602;27;20039;-72
2022/04/21 01:23:57;;;;;;;4.30;3.03;;;13.10;65.80;;;;;;10943293;32;20324;-72
2022/04/21 01:30:02;;;;;;;5.18;3.37;;;13.10;66.20;;;;;;10942962;32;20053;-72
2022/04/21 01:36:05;;;;;;;3.42;2.80;;;13.00;66.70;;;;;;10942954;32;20046;-72
2022/04/21 01:42:11;;;;;;;5.32;3.72;;;12.90;66.80;;;;;;10938606;32;20031;-72
2022/04/21 01:48:13;;;;;;;5.03;3.50;;;12.90;66.60;;;;;;10940954;32;20054;-72
2022/04/21 01:54:15;;;;;;;5.25;3.80;;;12.80;66.80;;;;;;10942492;32;20339;-72
2022/04/21 02:00:17;;;;;;;4.80;2.50;;;12.80;67.00;;;;;;10942380;32;20019;-72
2022/04/21 02:06:20;;;;;;;2.85;2.22;;;12.80;66.70;;;;;;10942143;32;20023;-72
2022/04/21 02:12:28;;;;;;;4.40;3.20;;;12.80;66.80;;;;;;10941937;32;20027;-72
2022/04/21 02:18:29;;;;;;;3.92;2.95;;;12.80;66.90;;;;;;10941522;32;20343;-73
2022/04/21 02:24:32;;;;;;;6.95;4.18;;;12.80;66.90;;;;;;10941662;32;20031;-73
2022/04/21 02:30:34;;;;;;;5.90;3.33;;;12.80;66.70;;;;;;10948437;32;20027;-72
2022/04/21 02:36:37;;;;;;;3.00;2.67;;;12.80;66.80;;;;;;10948962;32;20338;-72
2022/04/21 02:42:39;;;;;;;6.15;4.93;;;12.80;66.80;;;;;;10948125;32;20026;-72
2022/04/21 02:48:41;;;;;;;5.43;3.40;;;12.70;66.90;;;;;;10948764;32;20035;-73
2022/04/21 03:01:04;;;;;;;7.30;5.10;;;12.70;67.10;;;;;;10948172;32;20050;-73
2022/04/21 03:07:06;;;;;;;6.75;4.75;;;12.70;66.90;;;;;;10947967;32;20030;-73
2022/04/21 03:13:08;;;;;;;6.28;4.62;;;12.70;67.30;;;;;;10947879;32;20031;-72
2022/04/21 03:19:11;;;;;;;8.35;4.93;;;12.60;67.10;;;;;;10947648;32;20015;-72
2022/04/21 03:25:15;;;;;;;6.22;4.28;;;12.50;67.30;;;;;;10947648;32;20378;-73
2022/04/21 03:31:17;;;;;;;6.28;4.15;;;12.50;67.90;;;;;;10933905;32;20026;-73
2022/04/21 03:37:19;;;;;;;5.97;4.50;;;12.50;67.80;;;;;;10946940;32;20058;-73
2022/04/21 03:43:21;;;;;;;6.22;4.30;;;12.50;68.10;;;;;;10933496;32;20030;-73
2022/04/21 03:49:25;;;;;;;5.47;3.65;;;12.50;68.30;;;;;;10946952;32;20084;-73
2022/04/21 03:55:27;;;;;;;5.60;3.87;;;12.40;68.60;;;;;;10946874;32;20027;-73
2022/04/21 04:01:29;;;;;;;7.82;4.20;;;12.30;69.10;;;;;;10946628;32;20426;-72
2022/04/21 04:13:51;;;;;;;6.97;5.32;;;12.30;69.70;;;;;;10945925;32;20030;-73
2022/04/21 04:19:54;;;;;;;9.18;6.15;;;12.20;69.90;;;;;;10928492;32;20054;-73
2022/04/21 04:25:56;;;;;;;7.62;5.12;;;12.20;69.80;;;;;;10945820;32;20330;-73
2022/04/21 04:32:00;;;;;;;6.65;4.45;;;12.20;70.10;;;;;;10945653;32;20019;-73
2022/04/21 04:38:02;;;;;;;7.37;5.15;;;12.10;69.80;;;;;;10945301;32;20113;-73
2022/04/21 04:44:05;;;;;;;8.68;5.22;;;12.10;69.70;;;;;;10944973;32;20018;-73
2022/04/21 04:50:08;;;;;;;8.98;3.85;;;12.10;70.00;;;;;;10943935;32;20061;-73
2022/04/21 04:56:10;;;;;;;7.53;5.25;;;12.10;70.10;;;;;;10941924;32;20034;-72
2022/04/21 05:02:13;;;;;;;8.75;5.32;;;11.90;69.80;;;;;;10941302;32;20058;-73
2022/04/21 05:08:15;;;;;;;7.05;4.35;;;11.90;69.90;;;;;;10944028;32;20027;-73
2022/04/21 05:14:18;;;;;;;6.05;3.40;;;11.80;69.90;;;;;;10943005;32;20042;-72
2022/04/21 05:20:20;;;;;;;6.43;4.45;;;11.80;69.80;;;;;;10943005;32;20384;-72
2022/04/21 05:26:23;;;;;;;9.02;6.03;;;12.00;69.40;;;;;;10942860;32;20430;-73
2022/04/21 05:32:30;;;;;;;7.45;5.05;;;12.10;69.60;;;;;;10943076;32;20343;-72
2022/04/21 05:38:36;;;;;;;8.85;5.82;;;12.20;69.60;;;;;;10942512;32;20390;-73
2022/04/21 05:44:39;;;;;;;13.75;6.60;;;12.20;69.50;;;;;;10942439;32;20046;-73
2022/04/21 05:50:45;;;;;;;7.80;6.05;;;12.20;69.90;;;;;;10938969;32;20062;-73
2022/04/21 05:56:48;;;;;;;5.87;3.80;;;12.10;70.30;;;;;;10942234;32;20311;-73
2022/04/21 06:02:51;;;;;;;6.85;5.12;;;12.20;70.30;;;;;;10941259;32;20043;-73
2022/04/21 06:08:53;;;;;;;8.25;3.55;;;12.30;69.90;;;;;;10916050;32;20058;-73
2022/04/21 06:14:56;;;;;;;11.02;6.18;;;12.40;69.90;;;;;;10910574;32;20043;-73
2022/04/21 06:20:58;;;;;;;13.68;5.40;;;12.50;69.70;;;;;;10936507;32;20034;-73
2022/04/21 06:27:03;;;;;;;9.13;5.90;;;12.60;69.70;;;;;;10927999;32;20054;-72
2022/04/21 06:33:06;;;;;;;7.45;4.37;;;12.70;69.50;;;;;;10902434;32;20199;-72
2022/04/21 06:39:09;;;;;;;6.50;4.32;;;12.70;69.90;;;;;;10904355;32;20019;-72
2022/04/21 06:51:32;;;;;;;8.73;6.82;;;12.90;69.40;;;;;;10904139;32;20024;-73
2022/04/21 06:57:34;;;;;;;7.50;5.72;;;13.10;69.20;;;;;;10912146;32;20090;-73
2022/04/21 07:03:36;;;;;;;6.00;3.78;;;13.00;69.30;;;;;;10941264;32;20379;-73
2022/04/21 07:09:39;;;;;;;13.38;7.45;;;13.00;69.30;;;;;;10941001;32;20403;-73
2022/04/21 07:15:41;;;;;;;14.05;10.25;;;13.20;69.20;;;;;;10946061;32;20055;-73
2022/04/21 07:21:44;;;;;;;6.18;4.03;;;13.20;69.20;;;;;;10947441;32;20055;-73
2022/04/21 07:27:46;;;;;;;6.85;4.22;;;13.40;69.00;;;;;;10946617;32;20124;-73
2022/04/21 07:33:48;;;;;;;10.98;7.18;;;13.70;68.30;;;;;;10947442;32;20395;-74
2022/04/21 07:39:50;;;;;;;7.95;5.80;;;13.80;68.00;;;;;;10944383;32;20395;-73
2022/04/21 07:45:55;;;;;;;8.38;5.43;;;13.70;68.60;;;;;;10933708;32;20026;-74
2022/04/21 07:58:19;;;;;;;4.30;3.33;;;13.90;68.30;;;;;;10946440;32;20027;-73
2022/04/21 08:04:21;;;;;;;6.72;4.97;;;14.10;67.80;;;;;;10946362;32;20042;-73
2022/04/21 08:10:25;;;;;;;10.68;8.18;;;14.10;67.70;;;;;;10946164;32;20312;-74
2022/04/21 08:16:29;;;;;;;9.25;6.90;;;14.20;67.70;;;;;;10945837;32;20411;-74
2022/04/21 08:22:44;;;;;;;11.93;8.13;;;14.20;67.60;;;;;;10945480;32;20023;-74
2022/04/21 08:35:09;;;;;;;7.22;5.72;;;14.40;66.70;;;;;;10945181;32;20019;-74
2022/04/21 08:41:41;;;;;;;6.05;5.00;;;14.60;66.40;;;;;;10931379;32;20023;-73
2022/04/21 08:47:46;;;;;;;6.18;4.20;;;14.60;65.50;;;;;;10944823;32;20031;-73
2022/04/21 08:53:50;;;;;;;6.50;4.62;;;14.60;65.60;;;;;;10944857;32;20445;-73
2022/04/21 08:59:53;;;;;;;6.72;5.57;;;14.50;64.90;;;;;;10944095;32;20031;-74
2022/04/21 09:05:55;;;;;;;4.97;3.12;;;14.40;64.70;;;;;;10939602;32;20073;-73
2022/04/21 09:11:57;;;;;;;6.20;3.90;;;14.30;65.00;;;;;;10939336;32;20019;-73
2022/04/21 09:18:02;;;;;;;7.28;4.80;;;14.30;64.70;;;;;;10936937;27;254536;-74
2022/04/21 09:24:20;;;;;;;13.20;5.80;;;14.30;64.30;;;;;;10939090;32;20089;-73
2022/04/21 09:30:23;;;;;;;16.30;3.53;;;14.30;64.20;;;;;;10938190;32;20054;-74
2022/04/21 09:36:29;;;;;;;13.32;5.50;;;14.20;64.10;;;;;;10941324;32;20320;-73
2022/04/21 09:42:31;;;;;;;5.97;4.53;;;14.20;63.80;;;;;;10941391;32;20031;-73
2022/04/21 09:48:33;;;;;;;11.12;6.05;;;14.20;63.40;;;;;;10940587;32;20026;-73
2022/04/21 09:54:36;;;;;;;7.32;4.35;;;14.20;63.40;;;;;;10938559;32;20434;-73
2022/04/21 10:00:41;;;;;;;12.80;6.53;;;14.20;63.20;;;;;;10942678;32;20049;-73
2022/04/21 10:06:44;;;;;;;10.45;4.57;;;14.20;63.20;;;;;;10928976;32;20046;-73
2022/04/21 10:12:48;;;;;;;9.45;5.62;;;14.20;63.30;;;;;;10928830;32;20015;-73
2022/04/21 10:18:54;;;;;;;7.53;3.85;;;14.30;63.40;;;;;;10940540;32;20050;-73
2022/04/21 10:24:57;;;;;;;11.82;4.30;;;14.40;62.90;;;;;;10927589;32;20023;-73
2022/04/21 10:31:32;;;;;;;5.45;3.97;;;14.50;62.70;;;;;;10941816;32;20031;-73
2022/04/21 10:37:34;;;;;;;7.18;3.58;;;14.60;62.10;;;;;;10937198;32;20443;-73
2022/04/21 10:43:49;;;;;;;10.20;3.92;;;14.70;62.10;;;;;;10927895;32;20041;-73
2022/04/21 10:49:59;;;;;;;8.23;4.65;;;14.70;61.80;;;;;;10946014;32;20395;-73
2022/04/21 11:03:07;;;;;;;6.28;3.95;;;14.90;60.80;;;;;;10683348;33;20048;-73
2022/04/21 11:09:39;;;;;;;4.82;3.30;;;14.80;60.40;;;;;;10685703;33;20021;-73
2022/04/21 11:15:53;;;;;;;7.00;4.82;;;14.70;60.30;;;;;;10681724;33;20041;-73
2022/04/21 11:22:03;;;;;;;8.07;5.12;;;14.70;61.00;;;;;;10681372;33;20077;-73
2022/04/21 11:28:06;;;;;;;7.15;5.03;;;14.80;60.80;;;;;;10686462;33;20504;-73
2022/04/21 11:34:08;;;;;;;7.15;5.20;;;14.90;61.10;;;;;;10700035;33;20040;-73
2022/04/21 11:40:20;;;;;;;4.97;3.53;;;15.00;60.60;;;;;;10904075;32;20343;-73
2022/04/21 11:46:22;;;;;;;9.23;6.60;;;15.20;60.20;;;;;;10946630;32;20421;-74
2022/04/21 11:52:28;;;;;;;7.97;5.93;;;15.30;60.80;;;;;;10941763;32;20063;-73
2022/04/21 11:58:34;;;;;;;5.95;4.40;;;15.40;61.50;;;;;;10945839;32;20376;-73
2022/04/21 12:10:57;;;;;;;5.93;3.65;;;16.00;60.00;;;;;;10945689;32;20031;-73
2022/04/21 12:17:02;;;;;;;9.20;3.83;;;16.50;59.70;;;;;;10945565;32;20387;-74
2022/04/21 12:23:04;;;;;;;3.83;2.72;;;16.70;59.00;;;;;;10945408;32;20054;-73
2022/04/21 12:29:07;;;;;;;2.12;1.92;;;16.50;58.60;;;;;;10944265;32;20053;-74
2022/04/21 12:35:12;;;;;;;2.33;2.10;;;16.30;58.60;;;;;;10941876;32;20395;-73
2022/04/21 12:41:15;;;;;;;3.25;2.80;;;16.10;59.10;;;;;;10942611;32;20035;-73
2022/04/21 12:47:19;;;;;;;4.12;2.87;;;16.10;59.10;;;;;;10944384;32;20045;-74
2022/04/21 12:53:29;;;;;;;3.55;2.85;;;16.10;59.40;;;;;;10944234;32;20026;-73
2022/04/21 12:59:31;;;;;;;4.18;2.83;;;16.10;59.40;;;;;;10942509;32;20061;-73
2022/04/21 13:05:33;;;;;;;3.15;2.37;;;16.20;59.30;;;;;;10944144;32;20027;-72
2022/04/21 13:11:35;;;;;;;5.32;2.97;;;16.20;59.30;;;;;;10938795;32;20027;-74
2022/04/21 13:17:37;;;;;;;3.92;2.47;;;16.20;59.30;;;;;;10943306;32;20027;-74
2022/04/21 13:23:39;;;;;;;4.75;3.22;;;16.20;59.50;;;;;;10939009;32;20022;-73
2022/04/21 13:29:43;;;;;;;5.00;3.62;;;16.20;60.00;;;;;;10942590;32;20049;-73
2022/04/21 13:35:45;;;;;;;5.05;3.22;;;16.20;61.10;;;;;;10930094;32;20066;-74
2022/04/21 13:41:48;;;;;;;8.75;3.37;;;16.20;61.10;;;;;;10942424;32;20041;-73
2022/04/21 13:47:50;;;;;;;4.65;2.90;;;16.20;61.10;;;;;;10941935;32;20045;-73
2022/04/21 13:53:52;;;;;;;4.40;2.83;;;16.40;60.80;;;;;;10942025;32;20331;-73
2022/04/21 13:59:54;;;;;;;4.53;3.17;;;16.50;60.30;;;;;;10928436;32;20023;-73
2022/04/21 14:05:56;;;;;;;7.50;3.08;;;16.70;59.50;;;;;;10941712;32;20022;-74
2022/04/21 14:12:14;;;;;;;2.70;2.15;;;16.70;59.50;;;;;;10937026;32;20395;-73
2022/04/21 14:18:17;;;;;;;2.57;2.10;;;16.80;58.80;;;;;;10940317;32;20146;-74
2022/04/21 14:24:19;;;;;;;2.83;1.85;;;16.90;57.40;;;;;;10950092;32;20031;-73
2022/04/21 14:30:21;;;;;;;2.72;2.17;;;16.90;56.90;;;;;;10952535;32;20065;-73
2022/04/21 14:36:24;;;;;;;2.28;1.70;;;16.80;56.70;;;;;;10952031;32;20020;-73
2022/04/21 14:48:47;;;;;;;1.73;1.62;;;16.60;56.10;;;;;;10953243;32;20067;-73
2022/04/21 14:54:49;;;;;;;4.37;2.53;;;16.30;56.00;;;;;;10953393;32;20289;-73
2022/04/21 15:00:51;;;;;;;3.33;1.77;;;16.20;55.60;;;;;;10952589;32;20355;-73
2022/04/21 15:07:12;;;;;;;1.95;1.60;;;16.20;55.30;;;;;;10949523;32;20304;-73
2022/04/21 15:13:14;;;;;;;2.42;1.75;;;16.00;55.60;;;;;;10953132;32;20088;-73
2022/04/21 15:19:16;;;;;;;8.23;2.05;;;15.90;55.70;;;;;;10952835;32;20050;-74
2022/04/21 15:25:19;;;;;;;3.67;1.37;;;15.90;55.90;;;;;;10953200;32;20355;-73
2022/04/21 15:31:24;;;;;;;3.20;1.80;;;15.80;56.30;;;;;;10951673;32;20061;-73
2022/04/21 15:37:26;;;;;;;2.03;1.65;;;15.80;56.10;;;;;;10945744;32;20058;-72
2022/04/21 15:43:29;;;;;;;1.50;0.98;;;15.80;56.10;;;;;;10946247;32;20422;-72
2022/04/21 15:49:32;;;;;;;1.73;1.17;;;15.80;55.90;;;;;;10946481;32;20030;-72
2022/04/21 16:01:55;;;;;;;2.75;1.85;;;15.60;56.40;;;;;;10946100;32;20058;-72
2022/04/21 16:08:03;;;;;;;2.05;1.37;;;15.60;56.40;;;;;;10946036;32;20045;-72
2022/04/21 16:14:06;;;;;;;1.70;1.60;;;15.60;56.70;;;;;;10916079;32;20462;-72
2022/04/21 16:20:09;;;;;;;3.25;2.33;;;15.50;56.50;;;;;;10907438;32;20019;-73
2022/04/21 16:26:11;;;;;;;4.62;2.60;;;15.50;56.70;;;;;;10902903;32;20031;-73
2022/04/21 16:32:13;;;;;;;3.95;2.05;;;15.50;56.70;;;;;;10906359;32;20392;-73
2022/04/21 16:38:19;;;;;;;2.87;1.83;;;15.50;56.90;;;;;;10919478;32;20039;-73
2022/04/21 16:44:21;;;;;;;5.68;2.87;;;15.40;57.10;;;;;;10929899;32;20030;-73
2022/04/21 16:50:23;;;;;;;3.15;2.05;;;15.40;57.50;;;;;;10943945;32;20046;-73
2022/04/21 16:56:27;;;;;;;3.08;2.12;;;15.40;57.70;;;;;;10943704;32;20058;-72
2022/04/21 17:09:10;;;;;;;2.97;2.45;;;15.30;58.10;;;;;;10828661;32;20020;-72
2022/04/21 17:15:12;;;;;;;1.73;1.33;;;15.30;58.10;;;;;;10846819;27;20423;-72
2022/04/21 17:21:14;;;;;;;6.18;2.58;;;15.30;58.40;;;;;;10850490;32;20408;-73
2022/04/21 17:27:22;;;;;;;3.28;2.50;;;15.30;58.60;;;;;;10827525;32;20020;-73
2022/04/21 17:33:26;;;;;;;4.72;2.72;;;15.30;58.70;;;;;;10825210;32;20332;-72
2022/04/21 17:39:28;;;;;;;2.60;2.12;;;15.30;58.80;;;;;;10815369;32;20024;-72
2022/04/21 17:45:30;;;;;;;3.30;2.40;;;15.20;59.20;;;;;;10885091;32;20023;-72
2022/04/21 17:51:32;;;;;;;3.50;2.62;;;15.20;59.40;;;;;;10891886;32;20054;-72
2022/04/21 17:57:34;;;;;;;4.82;2.95;;;15.20;59.40;;;;;;10902637;32;20411;-72
2022/04/21 18:03:37;;;;;;;4.93;3.67;;;15.30;59.50;;;;;;10902383;32;20035;-72
2022/04/21 18:09:39;;;;;;;4.43;2.22;;;15.20;60.30;;;;;;10903342;32;20024;-72
2022/04/21 18:16:03;;;;;;;3.67;2.28;;;15.10;60.60;;;;;;10902091;32;20019;-72
2022/04/21 18:22:05;;;;;;;4.50;2.47;;;15.00;61.10;;;;;;10903232;32;20305;-72
2022/04/21 18:28:08;;;;;;;4.93;2.37;;;15.00;61.70;;;;;;10900211;32;20392;-72
2022/04/21 18:34:11;;;;;;;8.05;2.97;;;14.90;62.10;;;;;;10903683;32;20062;-72
2022/04/21 18:40:13;;;;;;;5.35;3.50;;;14.90;62.30;;;;;;10903239;32;20110;-72
2022/04/21 18:46:17;;;;;;;3.72;3.03;;;14.80;62.80;;;;;;10905566;32;20034;-72
2022/04/21 18:52:21;;;;;;;5.97;3.00;;;14.90;63.00;;;;;;10931031;32;20309;-72
2022/04/21 18:58:23;;;;;;;7.82;3.75;;;14.80;63.10;;;;;;10899815;32;20058;-72
2022/04/21 19:04:25;;;;;;;3.62;2.83;;;14.80;63.50;;;;;;10902909;32;20398;-72
2022/04/21 19:11:11;;;;;;;7.87;4.35;;;14.80;63.50;;;;;;10893202;32;20023;-70
2022/04/21 19:17:13;;;;;;;3.87;3.37;;;14.80;63.50;;;;;;10742341;32;20055;-71
2022/04/21 19:23:59;;;;;;;6.50;3.85;;;14.80;63.60;;;;;;10757497;33;20032;-70
2022/04/21 19:30:01;;;;;;;4.60;3.62;;;14.80;63.60;;;;;;10756495;32;20036;-70
2022/04/21 19:36:04;;;;;;;5.57;4.43;;;14.70;63.60;;;;;;10753614;33;20451;-70
2022/04/21 19:42:07;;;;;;;4.57;3.72;;;14.70;64.00;;;;;;10753029;33;20021;-70
2022/04/21 19:48:09;;;;;;;7.20;5.25;;;14.70;64.10;;;;;;10756025;33;20037;-70
2022/04/21 19:54:11;;;;;;;5.37;3.92;;;14.60;64.00;;;;;;10898579;32;20027;-70
2022/04/21 20:00:18;;;;;;;4.65;3.42;;;14.60;64.10;;;;;;10908101;32;20335;-71
2022/04/21 20:12:43;;;;;;;4.87;2.92;;;14.60;64.50;;;;;;10904437;32;20031;-70
2022/04/21 20:18:45;;;;;;;8.02;3.58;;;14.60;64.60;;;;;;10907346;32;20019;-71
2022/04/21 20:31:13;;;;;;;4.25;2.78;;;14.70;64.10;;;;;;10907147;32;20400;-70
2022/04/21 20:37:16;;;;;;;3.17;2.10;;;14.70;64.20;;;;;;10907462;32;20427;-70
2022/04/21 20:43:18;;;;;;;4.35;2.53;;;14.60;64.40;;;;;;10906087;32;20031;-70
2022/04/21 20:49:20;;;;;;;4.22;2.58;;;14.50;64.60;;;;;;10906653;32;20412;-70
2022/04/21 20:55:22;;;;;;;3.50;2.20;;;14.50;64.70;;;;;;10906372;32;20031;-70
2022/04/21 21:01:25;;;;;;;5.72;3.17;;;14.50;64.80;;;;;;10906538;32;20392;-70
2022/04/21 21:07:27;;;;;;;6.45;4.15;;;14.40;64.90;;;;;;10904760;32;20041;-70
2022/04/21 21:13:29;;;;;;;4.68;2.60;;;14.30;65.00;;;;;;10905985;32;20023;-69
2022/04/21 21:19:31;;;;;;;8.02;3.85;;;14.30;65.10;;;;;;10901652;32;20324;-69
2022/04/21 21:25:34;;;;;;;6.15;4.28;;;14.20;65.50;;;;;;10905729;32;20353;-70
2022/04/21 21:31:42;;;;;;;6.85;4.22;;;14.20;65.60;;;;;;10904786;32;20081;-70
2022/04/21 21:37:45;;;;;;;7.97;5.25;;;14.10;65.70;;;;;;10905347;32;20019;-70
2022/04/21 21:43:50;;;;;;;7.85;4.03;;;14.10;65.80;;;;;;10905168;32;20019;-70
2022/04/21 21:56:13;;;;;;;11.18;5.62;;;13.80;66.80;;;;;;10905805;32;20339;-73
2022/04/21 22:02:15;;;;;;;8.20;5.12;;;13.70;67.10;;;;;;10905218;32;20316;-73
2022/04/21 22:08:17;;;;;;;5.93;4.12;;;13.60;67.20;;;;;;10904927;32;20023;-72
2022/04/21 22:14:20;;;;;;;6.57;4.87;;;13.50;67.30;;;;;;10904502;32;20016;-72
2022/04/21 22:20:22;;;;;;;5.65;3.40;;;13.40;67.60;;;;;;10904268;32;20027;-73
2022/04/21 22:26:24;;;;;;;13.27;6.37;;;13.20;68.30;;;;;;10904000;32;20050;-73
2022/04/21 22:32:26;;;;;;;8.20;5.15;;;13.10;68.50;;;;;;10903854;32;20093;-73
2022/04/21 22:38:28;;;;;;;5.78;4.30;;;13.00;69.30;;;;;;10903852;32;20053;-73
2022/04/21 22:44:31;;;;;;;6.47;4.30;;;13.00;69.40;;;;;;10908085;32;20426;-73
2022/04/21 22:50:35;;;;;;;10.52;6.82;;;12.90;69.70;;;;;;10910955;32;20061;-73
2022/04/21 22:56:37;;;;;;;8.60;6.32;;;12.90;70.50;;;;;;10910848;32;20015;-73
2022/04/21 23:02:41;;;;;;;8.95;5.80;;;12.70;71.70;;;;;;10910627;32;20050;-73
2022/04/21 23:15:15;;;;;;;9.77;6.43;;;12.60;73.30;;;;;;10910065;32;20035;-74
2022/04/21 23:21:17;;;;;;;7.55;5.15;;;12.50;74.10;;;;;;10908156;32;20430;-73
2022/04/21 23:27:20;;;;;;;10.32;8.20;;;12.60;74.40;;;;;;10909861;32;20392;-74
2022/04/21 23:33:21;;;;;;;8.73;5.62;;;12.50;75.00;;;;;;10909361;32;20049;-73
2022/04/21 23:39:24;;;;;;;12.35;6.32;;;12.50;75.70;;;;;;10891858;32;20018;-73
2022/04/21 23:45:26;;;;;;;7.93;4.75;;;12.40;76.20;;;;;;10904961;32;20042;-73
2022/04/21 23:51:28;;;;;;;8.15;6.62;;;12.40;76.30;;;;;;10908837;32;20050;-73
2022/04/21 23:57:30;;;;;;;9.32;6.65;;;12.40;77.00;;;;;;10894885;32;20038;-73
